createdAt,value
2018-11-26T00:01:14.367Z,94.70
2018-11-26T00:06:17.984Z,94.50
2018-11-26T00:11:36.590Z,94.70
2018-11-26T00:16:40.186Z,94.60
2018-11-26T00:21:43.762Z,94.80
2018-11-26T00:26:47.307Z,95.10
2018-11-26T00:31:50.842Z,94.80
2018-11-26T00:36:54.292Z,94.80
2018-11-26T00:41:57.815Z,94.90
2018-11-26T00:47:01.437Z,95.20
2018-11-26T00:52:05.407Z,95.50
2018-11-26T00:57:09.005Z,95.80
2018-11-26T01:02:12.584Z,95.70
2018-11-26T01:07:16.199Z,95.70
2018-11-26T01:12:19.779Z,95.60
2018-11-26T01:17:23.339Z,95.30
2018-11-26T01:22:27.038Z,95.10
2018-11-26T01:27:30.757Z,95.00
2018-11-26T01:32:34.349Z,96.00
2018-11-26T01:37:37.905Z,96.10
2018-11-26T01:42:42.057Z,95.90
2018-11-26T01:47:45.657Z,95.40
2018-11-26T01:52:49.278Z,95.40
2018-11-26T01:57:52.810Z,95.30
2018-11-26T02:02:56.501Z,95.40
2018-11-26T02:08:00.026Z,95.30
2018-11-26T02:13:03.563Z,95.30
2018-11-26T02:18:08.414Z,95.60
2018-11-26T02:23:12.941Z,95.70
2018-11-26T02:28:16.706Z,95.30
2018-11-26T02:33:20.312Z,95.10
2018-11-26T02:38:24.006Z,95.00
2018-11-26T02:43:27.573Z,95.30
2018-11-26T02:48:31.079Z,95.50
2018-11-26T02:53:34.649Z,95.20
2018-11-26T02:58:38.189Z,94.90
2018-11-26T03:03:41.694Z,95.10
2018-11-26T03:08:45.376Z,95.10
2018-11-26T03:13:49.026Z,95.00
2018-11-26T03:18:52.589Z,94.80
2018-11-26T03:23:56.205Z,94.60
2018-11-26T03:28:59.700Z,94.50
2018-11-26T03:34:03.205Z,94.80
2018-11-26T03:39:07.986Z,94.90
2018-11-26T03:44:11.476Z,94.60
2018-11-26T03:49:15.067Z,94.60
2018-11-26T03:54:18.770Z,95.00
2018-11-26T03:59:22.398Z,95.20
2018-11-26T04:04:26.010Z,95.00
2018-11-26T04:09:29.641Z,95.10
2018-11-26T04:14:33.151Z,95.20
2018-11-26T04:19:36.800Z,95.30
2018-11-26T04:24:40.344Z,95.70
2018-11-26T04:29:43.934Z,95.90
2018-11-26T04:34:47.459Z,95.90
2018-11-26T04:39:51.006Z,95.70
2018-11-26T04:44:54.537Z,95.80
2018-11-26T04:49:58.149Z,95.90
2018-11-26T04:55:01.678Z,96.00
2018-11-26T05:00:08.580Z,96.00
2018-11-26T05:05:13.198Z,95.90
2018-11-26T05:10:16.706Z,96.00
2018-11-26T05:15:20.274Z,96.20
2018-11-26T05:20:23.784Z,96.20
2018-11-26T05:25:27.437Z,96.10
2018-11-26T05:30:30.946Z,96.10
2018-11-26T05:35:34.476Z,95.90
2018-11-26T05:40:38.005Z,95.80
2018-11-26T05:45:41.519Z,95.60
2018-11-26T05:50:45.046Z,95.60
2018-11-26T05:55:48.558Z,95.70
2018-11-26T06:00:52.229Z,95.70
2018-11-26T06:05:55.932Z,96.10
2018-11-26T06:10:59.497Z,96.40
2018-11-26T06:16:03.259Z,96.30
2018-11-26T06:21:07.579Z,96.50
2018-11-26T06:26:11.104Z,96.80
2018-11-26T06:31:14.862Z,96.50
2018-11-26T06:36:18.476Z,96.60
2018-11-26T06:41:22.026Z,96.50
2018-11-26T06:46:25.778Z,96.60
2018-11-26T06:51:29.240Z,96.80
2018-11-26T06:56:32.958Z,96.90
2018-11-26T07:01:36.614Z,97.00
2018-11-26T07:06:40.289Z,96.70
2018-11-26T07:11:43.848Z,96.80
2018-11-26T07:16:47.354Z,97.00
2018-11-26T07:21:50.941Z,96.70
2018-11-26T07:26:54.437Z,97.10
2018-11-26T07:31:57.991Z,96.90
2018-11-26T07:37:01.528Z,96.60
2018-11-26T07:42:06.352Z,96.80
2018-11-26T07:47:09.930Z,96.80
2018-11-26T07:52:13.769Z,96.70
2018-11-26T07:57:17.241Z,96.80
2018-11-26T08:02:20.698Z,97.20
2018-11-26T08:07:24.180Z,97.00
2018-11-26T08:12:27.713Z,97.50
2018-11-26T08:17:31.275Z,96.20
2018-11-26T08:22:34.890Z,96.30
2018-11-26T08:27:39.201Z,95.80
2018-11-26T08:32:43.865Z,96.00
2018-11-26T08:37:53.251Z,95.80
2018-11-26T08:43:14.921Z,95.70
2018-11-26T08:48:25.658Z,95.50
2018-11-26T08:53:29.423Z,95.10
2018-11-26T08:58:33.033Z,94.90
2018-11-26T09:03:42.439Z,94.60
2018-11-26T09:08:46.233Z,94.20
2018-11-26T09:13:49.726Z,94.20
2018-11-26T09:18:53.738Z,94.10
2018-11-26T09:23:57.622Z,94.30
2018-11-26T09:29:01.132Z,94.30
2018-11-26T09:34:05.739Z,94.10
2018-11-26T09:39:11.831Z,94.30
2018-11-26T09:44:15.967Z,94.30
2018-11-26T09:49:20.420Z,94.20
2018-11-26T09:54:26.043Z,94.50
2018-11-26T09:59:28.870Z,94.40
2018-11-26T10:04:32.471Z,94.00
2018-11-26T10:09:35.929Z,94.10
2018-11-26T10:14:39.728Z,93.60
2018-11-26T10:19:43.648Z,93.10
2018-11-26T10:24:47.701Z,93.30
2018-11-26T10:29:51.306Z,92.40
2018-11-26T10:34:54.766Z,93.70
2018-11-26T10:39:58.333Z,91.40
2018-11-26T10:45:01.790Z,91.10
2018-11-26T10:50:08.473Z,91.00
2018-11-26T10:55:14.521Z,90.90
2018-11-26T11:00:24.001Z,91.00
2018-11-26T11:05:27.628Z,91.30
2018-11-26T11:10:33.150Z,91.70
2018-11-26T11:15:37.138Z,91.50
2018-11-26T11:20:40.872Z,90.70
2018-11-26T11:25:44.494Z,90.10
2018-11-26T11:30:48.110Z,89.80
2018-11-26T11:35:52.387Z,87.50
2018-11-26T11:40:55.935Z,87.10
2018-11-26T11:45:59.553Z,85.90
2018-11-26T11:51:03.262Z,83.90
2018-11-26T11:56:07.408Z,83.70
2018-11-26T12:01:11.130Z,82.20
2018-11-26T12:06:14.622Z,80.30
2018-11-26T12:11:18.112Z,76.10
2018-11-26T12:16:21.742Z,74.10
2018-11-26T12:21:25.437Z,74.60
2018-11-26T12:26:29.447Z,75.00
2018-11-26T12:31:32.973Z,74.60
2018-11-26T12:36:36.495Z,73.40
2018-11-26T12:41:40.079Z,73.70
2018-11-26T12:46:43.661Z,74.40
2018-11-26T12:51:47.173Z,74.30
2018-11-26T12:56:50.874Z,73.10
2018-11-26T13:01:54.419Z,73.20
2018-11-26T13:06:58.157Z,72.90
2018-11-26T13:12:02.186Z,73.60
2018-11-26T13:17:06.207Z,74.20
2018-11-26T13:22:09.686Z,73.90
2018-11-26T13:27:13.349Z,73.90
2018-11-26T13:32:17.084Z,73.90
2018-11-26T13:37:20.511Z,74.70
2018-11-26T13:42:24.081Z,74.90
2018-11-26T13:47:27.646Z,74.30
2018-11-26T13:52:31.784Z,75.10
2018-11-26T13:57:35.508Z,75.40
2018-11-26T14:02:39.167Z,75.10
2018-11-26T14:07:43.123Z,75.90
2018-11-26T14:12:55.662Z,77.10
2018-11-26T14:17:59.268Z,76.80
2018-11-26T14:23:02.826Z,77.00
2018-11-26T14:28:06.716Z,77.40
2018-11-26T14:33:10.652Z,78.20
2018-11-26T14:38:14.420Z,78.50
2018-11-26T14:43:17.924Z,78.10
2018-11-26T14:48:21.598Z,77.80
2018-11-26T14:53:25.156Z,77.90
2018-11-26T14:58:28.796Z,78.60
2018-11-26T15:03:32.415Z,78.80
2018-11-26T15:08:36.127Z,78.70
2018-11-26T15:13:39.860Z,78.60
2018-11-26T15:18:43.516Z,78.70
2018-11-26T15:23:47.033Z,79.10
2018-11-26T15:28:51.012Z,79.50
2018-11-26T15:33:54.658Z,79.90
2018-11-26T15:38:58.433Z,80.10
2018-11-26T15:44:02.322Z,80.10
2018-11-26T15:49:06.612Z,79.80
2018-11-26T15:54:10.148Z,79.70
2018-11-26T15:59:13.928Z,79.80
2018-11-26T16:04:17.667Z,80.00
2018-11-26T16:09:21.225Z,79.90
2018-11-26T16:14:24.777Z,80.10
2018-11-26T16:19:28.357Z,80.00
2018-11-26T16:24:32.040Z,80.40
2018-11-26T16:29:35.574Z,80.80
2018-11-26T16:34:39.119Z,81.30
2018-11-26T16:39:42.989Z,81.60
2018-11-26T16:44:46.518Z,81.30
2018-11-26T16:49:50.140Z,82.50
2018-11-26T16:54:53.705Z,83.00
2018-11-26T16:59:57.434Z,81.60
2018-11-26T17:05:01.263Z,81.80
2018-11-26T17:10:07.100Z,82.30
2018-11-26T17:15:15.676Z,81.60
2018-11-26T17:20:19.297Z,81.90
2018-11-26T17:25:22.857Z,82.00
2018-11-26T17:30:27.612Z,82.80
2018-11-26T17:35:32.065Z,83.30
2018-11-26T17:40:37.730Z,83.50
2018-11-26T17:45:41.386Z,83.80
2018-11-26T17:50:45.633Z,84.10
2018-11-26T17:55:54.844Z,84.00
2018-11-26T18:01:07.311Z,84.40
2018-11-26T18:06:11.035Z,83.60
2018-11-26T18:11:14.678Z,83.60
2018-11-26T18:16:18.249Z,82.90
2018-11-26T18:21:22.084Z,82.40
2018-11-26T18:26:26.289Z,82.10
2018-11-26T18:31:29.823Z,81.30
2018-11-26T18:36:33.415Z,80.70
2018-11-26T18:41:36.939Z,79.30
2018-11-26T18:46:40.525Z,76.30
2018-11-26T18:51:44.170Z,75.90
2018-11-26T18:56:47.728Z,75.80
2018-11-26T19:01:51.415Z,76.50
2018-11-26T19:06:56.006Z,75.60
2018-11-26T19:12:04.075Z,76.30
2018-11-26T19:17:03.749Z,76.90
2018-11-26T19:22:07.410Z,76.90
2018-11-26T19:27:11.832Z,76.70
2018-11-26T19:32:15.464Z,77.00
2018-11-26T19:37:19.110Z,76.90
2018-11-26T19:42:23.554Z,77.00
2018-11-26T19:47:26.319Z,76.30
2018-11-26T19:52:29.971Z,76.60
2018-11-26T19:57:33.527Z,76.90
2018-11-26T20:02:37.621Z,77.70
2018-11-26T20:07:41.418Z,76.70
2018-11-26T20:12:44.919Z,77.10
2018-11-26T20:17:48.479Z,75.90
2018-11-26T20:22:52.276Z,75.40
2018-11-26T20:27:56.091Z,76.10
2018-11-26T20:32:59.431Z,76.80
2018-11-26T20:38:03.067Z,79.00
2018-11-26T20:43:09.509Z,79.80
2018-11-26T20:48:13.409Z,81.10
2018-11-26T20:53:18.009Z,81.70
2018-11-26T20:58:21.704Z,83.20
2018-11-26T21:03:30.143Z,81.90
2018-11-26T21:08:35.616Z,82.20
2018-11-26T21:13:40.725Z,83.00
2018-11-26T21:18:46.284Z,83.80
2018-11-26T21:23:51.875Z,84.20
2018-11-26T21:28:57.728Z,84.40
2018-11-26T21:34:03.998Z,85.00
2018-11-26T21:39:10.548Z,85.50
2018-11-26T21:44:15.116Z,87.20
2018-11-26T21:49:20.206Z,88.40
2018-11-26T21:54:24.811Z,88.20
2018-11-26T21:59:29.299Z,89.30
2018-11-26T22:04:35.843Z,90.00
2018-11-26T22:09:41.059Z,88.30
2018-11-26T22:14:45.271Z,89.30
2018-11-26T22:19:49.833Z,90.10
2018-11-26T22:24:54.147Z,91.90
2018-11-26T22:29:58.746Z,93.80
2018-11-26T22:35:03.250Z,92.30
2018-11-26T22:40:13.881Z,91.60
2018-11-26T22:45:28.426Z,91.00
2018-11-26T22:50:32.334Z,90.80
2018-11-26T22:55:36.089Z,90.90
2018-11-26T23:00:59.768Z,91.10
2018-11-26T23:06:03.404Z,91.50
2018-11-26T23:11:07.584Z,91.60
2018-11-26T23:16:11.233Z,91.70
2018-11-26T23:21:14.737Z,91.90
2018-11-26T23:26:18.492Z,92.10
2018-11-26T23:31:22.193Z,92.20
2018-11-26T23:36:25.812Z,92.20
2018-11-26T23:41:29.469Z,92.50
2018-11-26T23:46:33.189Z,92.50
2018-11-26T23:51:36.645Z,92.70
2018-11-26T23:56:40.694Z,92.90
